Time;durP1;ratioP1;P1;durP2;ratioP2;P2;SDS_P1;SDS_P2;PMS_P1;PMS_P2;Temp;Humidity;BMP_temperature;BMP_pressure;BME280_temperature;BME280_humidity;BME280_pressure;Samples;Min_cycle;Max_cycle;Signal;HPM_P1;HPM_P2
2023/08/31 00:02:09;;;;;;;14.60;10.70;;;;;;;15.72;100.00;98243.11;273118;1271;22363;-87
2023/08/31 00:08:13;;;;;;;16.30;10.20;;;;;;;15.71;100.00;98246.05;272432;1270;22238;-85
2023/08/31 00:14:16;;;;;;;17.20;11.30;;;;;;;15.71;100.00;98249.45;270512;1271;22222;-85
2023/08/31 00:20:18;;;;;;;18.00;12.70;;;;;;;15.70;100.00;98253.56;273096;1265;22276;-85
2023/08/31 00:26:22;;;;;;;15.60;11.00;;;;;;;15.68;100.00;98250.84;272356;1271;23811;-87
2023/08/31 00:32:25;;;;;;;24.10;12.00;;;;;;;15.68;100.00;98259.52;270382;1272;23575;-85
2023/08/31 00:38:27;;;;;;;22.00;12.60;;;;;;;15.66;100.00;98259.55;270675;1271;23309;-85
2023/08/31 00:44:29;;;;;;;22.30;13.50;;;;;;;15.62;100.00;98257.73;272372;1271;22402;-84
2023/08/31 00:50:30;;;;;;;19.10;14.30;;;;;;;15.61;100.00;98257.69;270779;1271;24397;-85
2023/08/31 00:56:33;;;;;;;20.30;13.40;;;;;;;15.60;100.00;98263.85;271331;1269;22480;-85
2023/08/31 01:02:53;;;;;;;18.20;13.50;;;;;;;15.58;100.00;98263.20;272178;1272;23164;-84
2023/08/31 01:09:20;;;;;;;26.80;16.30;;;;;;;15.54;100.00;98257.45;271057;1271;22855;-85
2023/08/31 01:15:22;;;;;;;;;;;;;;;15.49;100.00;98253.35;271187;1272;25508;-85
2023/08/31 01:21:32;;;;;;;22.10;15.20;;;;;;;15.47;100.00;98250.66;270873;1272;22530;-85
2023/08/31 01:27:37;;;;;;;23.90;15.70;;;;;;;15.47;100.00;98256.55;272811;1272;22317;-85
2023/08/31 01:33:39;;;;;;;23.90;14.70;;;;;;;15.45;100.00;98258.95;272934;1272;22238;-85
2023/08/31 01:39:56;;;;;;;24.70;14.80;;;;;;;15.42;100.00;98265.80;273047;1271;22386;-85
2023/08/31 01:45:58;;;;;;;21.20;14.20;;;;;;;15.41;100.00;98268.90;273206;1270;24648;-84
2023/08/31 01:52:00;;;;;;;23.80;16.00;;;;;;;15.41;100.00;98276.77;270554;1272;22531;-84
2023/08/31 01:58:01;;;;;;;30.40;16.90;;;;;;;15.39;100.00;98282.01;272528;1270;22342;-84
2023/08/31 02:04:05;;;;;;;30.30;18.10;;;;;;;15.37;100.00;98281.01;271953;1272;23888;-85
2023/08/31 02:10:07;;;;;;;30.90;17.30;;;;;;;15.37;100.00;98289.35;271271;1272;22535;-85
2023/08/31 02:16:10;;;;;;;26.80;17.40;;;;;;;15.37;100.00;98290.92;270434;1271;22536;-84
2023/08/31 02:22:12;;;;;;;25.90;16.30;;;;;;;15.36;100.00;98295.81;271826;1271;22542;-85
2023/08/31 02:28:13;;;;;;;24.50;15.70;;;;;;;15.38;100.00;98300.93;270560;1271;22352;-84
2023/08/31 02:34:16;;;;;;;27.60;16.00;;;;;;;15.38;100.00;98306.52;271841;1270;22230;-86
2023/08/31 02:40:20;;;;;;;25.60;18.20;;;;;;;15.36;100.00;98311.11;272500;1272;24381;-86
2023/08/31 02:46:22;;;;;;;20.60;15.40;;;;;;;15.36;100.00;98315.53;270686;1272;24006;-85
2023/08/31 02:52:24;;;;;;;25.50;17.10;;;;;;;15.36;100.00;98315.52;271826;1272;22303;-85
2023/08/31 02:58:26;;;;;;;23.80;15.40;;;;;;;15.38;100.00;98313.70;273080;1272;22211;-85
2023/08/31 03:04:28;;;;;;;22.20;16.00;;;;;;;15.39;100.00;98312.41;272939;1271;22196;-84
2023/08/31 03:10:29;;;;;;;25.90;15.80;;;;;;;15.40;100.00;98309.26;272360;1265;435199;-85
2023/08/31 03:16:31;;;;;;;22.80;15.60;;;;;;;15.41;100.00;98313.73;272975;1272;23297;-84
2023/08/31 03:22:33;;;;;;;23.50;15.60;;;;;;;15.42;100.00;98322.86;271900;1272;22341;-85
2023/08/31 03:28:35;;;;;;;22.90;17.30;;;;;;;15.42;100.00;98319.69;272995;1271;22187;-85
2023/08/31 03:34:37;;;;;;;31.40;17.80;;;;;;;15.41;100.00;98314.75;270559;1271;22674;-85
2023/08/31 03:40:38;;;;;;;27.10;16.30;;;;;;;15.40;100.00;98312.09;271377;1271;22913;-85
2023/08/31 03:46:42;;;;;;;24.30;16.00;;;;;;;15.40;100.00;98321.61;272990;1272;22331;-85
2023/08/31 03:52:44;;;;;;;24.00;15.60;;;;;;;15.39;100.00;98328.66;271094;1272;23093;-85
2023/08/31 03:58:46;;;;;;;20.80;13.80;;;;;;;15.38;100.00;98334.73;270678;1271;23086;-86
2023/08/31 04:04:47;;;;;;;25.80;15.90;;;;;;;15.36;100.00;98342.55;272330;1270;22652;-85
2023/08/31 04:10:49;;;;;;;22.70;14.90;;;;;;;15.36;100.00;98349.08;270288;1272;22520;-84
2023/08/31 04:16:51;;;;;;;23.70;14.00;;;;;;;15.37;100.00;98356.48;269963;1272;23975;-84
2023/08/31 04:22:53;;;;;;;23.70;14.70;;;;;;;15.35;100.00;98349.81;270061;1271;22578;-85
2023/08/31 04:28:56;;;;;;;25.60;15.30;;;;;;;15.32;100.00;98349.80;271592;1271;23314;-84
2023/08/31 04:34:58;;;;;;;27.50;15.40;;;;;;;15.32;100.00;98357.52;272902;1270;23343;-85
2023/08/31 04:41:00;;;;;;;26.40;14.20;;;;;;;15.34;100.00;98364.80;272462;1270;23085;-84
2023/08/31 04:47:04;;;;;;;22.00;13.10;;;;;;;15.37;100.00;98371.14;272628;1272;22215;-84
2023/08/31 04:53:06;;;;;;;22.80;12.80;;;;;;;15.40;100.00;98376.23;273131;1272;22329;-84
2023/08/31 04:59:08;;;;;;;25.20;14.70;;;;;;;15.41;100.00;98379.69;273044;1272;22397;-85
2023/08/31 05:05:11;;;;;;;27.50;15.20;;;;;;;15.41;100.00;98380.64;273056;1270;22451;-84
2023/08/31 05:11:13;;;;;;;20.30;14.80;;;;;;;15.44;100.00;98383.02;273000;1270;23249;-84
2023/08/31 05:17:15;;;;;;;19.20;14.40;;;;;;;15.47;100.00;98388.39;272439;1272;23527;-84
2023/08/31 05:23:17;;;;;;;20.90;12.90;;;;;;;15.50;100.00;98396.30;271021;1265;22601;-84
2023/08/31 05:29:19;;;;;;;21.60;13.00;;;;;;;15.55;100.00;98405.27;270973;1265;22542;-84
2023/08/31 05:35:20;;;;;;;19.20;13.10;;;;;;;15.59;100.00;98405.51;269778;1272;22212;-85
2023/08/31 05:41:22;;;;;;;19.70;12.10;;;;;;;15.65;100.00;98409.10;270662;1272;22304;-85
2023/08/31 05:47:24;;;;;;;15.20;10.90;;;;;;;15.68;100.00;98406.77;271949;1272;22190;-84
2023/08/31 05:53:26;;;;;;;16.20;9.50;;;;;;;15.71;100.00;98412.62;271872;1270;22668;-84
2023/08/31 05:59:27;;;;;;;15.60;11.30;;;;;;;15.77;100.00;98414.48;270841;1272;25250;-84
2023/08/31 06:54:04;;;;;;;8.90;6.50;;;;;;;16.45;100.00;98440.84;272716;1272;23204;-84
2023/08/31 07:00:08;;;;;;;8.40;5.50;;;;;;;16.60;100.00;98445.48;270867;1272;23006;-84
2023/08/31 07:06:11;;;;;;;6.20;4.10;;;;;;;16.76;100.00;98450.42;270933;1272;22605;-84
2023/08/31 07:12:12;;;;;;;8.40;4.60;;;;;;;16.92;100.00;98457.33;271041;1272;23763;-85
2023/08/31 07:18:14;;;;;;;5.50;3.40;;;;;;;17.05;100.00;98464.70;271278;1271;23709;-85
2023/08/31 07:24:16;;;;;;;4.40;3.00;;;;;;;17.12;100.00;98468.23;272549;1272;22692;-85
2023/08/31 07:30:18;;;;;;;7.90;3.20;;;;;;;17.22;100.00;98476.86;271245;1272;22316;-86
2023/08/31 07:36:19;;;;;;;4.10;2.00;;;;;;;17.32;100.00;98482.14;272740;1272;22679;-85
2023/08/31 07:42:21;;;;;;;3.00;1.70;;;;;;;17.38;100.00;98478.05;272350;1272;22322;-85
2023/08/31 07:48:23;;;;;;;4.20;2.40;;;;;;;17.47;100.00;98484.09;272998;1272;22439;-85
2023/08/31 07:54:25;;;;;;;4.30;2.10;;;;;;;17.62;100.00;98490.92;272745;1272;22221;-85
2023/08/31 08:00:27;;;;;;;2.90;2.10;;;;;;;17.77;100.00;98491.17;273096;1272;24232;-84
2023/08/31 08:06:29;;;;;;;5.30;2.50;;;;;;;17.86;100.00;98482.16;272864;1272;23561;-85
2023/08/31 08:12:39;;;;;;;4.90;1.80;;;;;;;18.02;100.00;98481.25;272899;1272;22387;-85
2023/08/31 08:18:41;;;;;;;2.10;1.40;;;;;;;18.13;100.00;98492.05;271994;1272;22569;-85
2023/08/31 08:24:42;;;;;;;7.50;2.00;;;;;;;18.16;100.00;98500.73;272991;1267;22446;-85
2023/08/31 08:30:46;;;;;;;2.20;1.70;;;;;;;18.16;100.00;98502.95;273033;1272;23533;-85
2023/08/31 08:36:48;;;;;;;3.50;1.60;;;;;;;18.10;100.00;98512.54;272862;1272;22337;-89
2023/08/31 08:42:52;;;;;;;5.60;1.80;;;;;;;18.01;100.00;98528.52;272852;1272;22346;-85
2023/08/31 08:48:54;;;;;;;2.60;2.00;;;;;;;18.01;100.00;98528.92;273008;1272;22332;-87
2023/08/31 09:10:57;;;;;;;3.90;1.70;;;;;;;18.63;100.00;98526.60;271019;1272;22190;-85
2023/08/31 09:16:59;;;;;;;2.20;1.70;;;;;;;18.77;100.00;98533.98;271208;1271;22232;-84
2023/08/31 10:50:26;;;;;;;3.90;1.70;;;;;;;20.76;100.00;98578.98;271264;1263;25329;-86
2023/08/31 10:56:29;;;;;;;4.50;1.60;;;;;;;20.87;100.00;98578.75;270041;1270;22318;-85
2023/08/31 11:02:43;;;;;;;4.00;1.50;;;;;;;20.87;100.00;98582.06;271502;1271;22548;-84
2023/08/31 11:08:45;;;;;;;1.90;1.70;;;;;;;20.92;100.00;98582.52;270689;1272;22644;-88
2023/08/31 11:23:07;;;;;;;2.80;1.80;;;;;;;21.30;99.01;98579.84;271018;1270;22350;-86
2023/08/31 11:29:09;;;;;;;5.80;1.80;;;;;;;21.82;98.42;98575.78;272112;1271;22185;-85
2023/08/31 11:35:11;;;;;;;3.10;1.70;;;;;;;22.13;95.89;98579.85;273034;1271;22196;-85
2023/08/31 11:41:13;;;;;;;3.10;1.60;;;;;;;22.31;94.94;98578.73;272818;1268;22703;-89
2023/08/31 11:47:15;;;;;;;2.50;1.60;;;;;;;22.22;93.58;98575.23;270709;1271;22822;-85
2023/08/31 11:53:17;;;;;;;2.50;1.90;;;;;;;22.16;92.60;98573.11;271560;1270;23321;-89
2023/08/31 11:59:19;;;;;;;3.50;1.80;;;;;;;22.10;91.24;98580.52;272780;1270;23304;-85
2023/08/31 12:05:21;;;;;;;2.30;1.60;;;;;;;21.70;90.18;98579.69;272202;1270;22577;-85
2023/08/31 12:11:23;;;;;;;4.20;2.20;;;;;;;21.47;91.60;98574.95;272000;1271;23395;-85
2023/08/31 12:17:25;;;;;;;3.50;1.90;;;;;;;21.39;91.47;98565.98;272092;1272;22208;-86
2023/08/31 12:23:26;;;;;;;3.30;2.10;;;;;;;21.30;91.02;98564.07;273022;1272;22240;-85
2023/08/31 12:29:29;;;;;;;2.40;1.70;;;;;;;21.28;90.23;98560.25;272781;1270;22531;-84
2023/08/31 12:35:31;;;;;;;3.70;1.90;;;;;;;21.28;89.62;98551.29;270160;1270;22593;-85
2023/08/31 12:41:33;;;;;;;3.30;2.10;;;;;;;21.31;88.50;98547.90;272779;1271;22310;-85
2023/08/31 12:47:35;;;;;;;3.10;1.90;;;;;;;21.37;87.81;98546.23;271421;1270;22504;-85
2023/08/31 12:53:39;;;;;;;2.90;2.00;;;;;;;21.39;86.36;98549.94;270379;1272;22526;-85
2023/08/31 12:59:42;;;;;;;2.40;2.00;;;;;;;21.36;85.03;98549.53;272068;1270;22461;-86
2023/08/31 13:05:43;;;;;;;4.40;2.30;;;;;;;21.34;84.65;98551.66;272565;1271;22299;-85
2023/08/31 13:11:45;;;;;;;3.90;2.60;;;;;;;21.35;83.92;98552.13;273085;1270;22636;-85
2023/08/31 13:17:47;;;;;;;3.50;2.50;;;;;;;21.33;82.67;98551.40;272612;1271;22229;-85
2023/08/31 13:23:49;;;;;;;3.30;2.40;;;;;;;21.32;82.41;98549.90;271222;1272;23885;-85
2023/08/31 13:29:51;;;;;;;2.70;2.00;;;;;;;21.33;82.64;98550.90;270834;1271;22525;-85
2023/08/31 13:35:53;;;;;;;4.50;2.30;;;;;;;21.34;81.82;98551.50;272374;1271;23397;-85
2023/08/31 13:41:55;;;;;;;3.60;2.20;;;;;;;21.41;80.43;98555.77;272722;1271;22357;-86
2023/08/31 13:47:59;;;;;;;5.00;2.00;;;;;;;21.43;80.69;98558.63;272654;1271;22354;-87
2023/08/31 13:54:03;;;;;;;4.40;1.70;;;;;;;21.46;80.61;98564.59;272736;1271;22242;-84
2023/08/31 14:00:09;;;;;;;8.80;2.20;;;;;;;21.44;79.18;98565.52;272738;1271;22279;-86
2023/08/31 14:06:11;;;;;;;6.50;1.80;;;;;;;21.45;78.85;98567.23;272820;1271;22325;-83
2023/08/31 14:12:13;;;;;;;9.00;2.40;;;;;;;21.44;78.84;98566.61;272137;1271;22346;-83
2023/08/31 14:18:15;;;;;;;7.50;2.80;;;;;;;21.40;78.64;98567.52;272751;1269;23087;-83
2023/08/31 14:24:17;;;;;;;3.80;1.90;;;;;;;21.33;78.60;98571.14;272814;1271;22177;-84
2023/08/31 14:30:18;;;;;;;4.70;1.80;;;;;;;21.21;78.17;98578.28;272664;1271;22425;-83
2023/08/31 14:36:20;;;;;;;8.00;2.30;;;;;;;20.94;77.92;98608.14;273105;1271;22287;-82
2023/08/31 14:42:22;;;;;;;8.50;2.60;;;;;;;20.47;78.92;98654.45;273189;1272;22401;-83
2023/08/31 14:48:25;;;;;;;7.10;2.70;;;;;;;20.01;80.26;98681.83;273042;1272;22504;-84
2023/08/31 14:54:26;;;;;;;4.90;2.20;;;;;;;19.65;81.38;98698.50;273061;1272;22197;-84
2023/08/31 15:00:28;;;;;;;3.10;1.80;;;;;;;19.21;82.20;98713.48;273133;1271;23165;-83
2023/08/31 15:06:32;;;;;;;5.80;2.40;;;;;;;18.68;84.24;98721.64;273151;1272;22230;-82
2023/08/31 15:12:35;;;;;;;4.70;2.80;;;;;;;18.36;86.77;98728.98;273008;1272;169360;-85
2023/08/31 15:18:37;;;;;;;3.50;2.80;;;;;;;18.13;88.46;98729.23;273141;1272;22404;-84
2023/08/31 15:24:42;;;;;;;5.70;2.60;;;;;;;18.04;90.51;98730.54;272946;1272;22289;-84
2023/08/31 15:30:44;;;;;;;9.10;4.40;;;;;;;18.00;91.73;98725.34;272994;1271;22313;-85
2023/08/31 15:36:45;;;;;;;11.70;5.10;;;;;;;17.79;91.80;98724.95;273119;1272;22216;-84
2023/08/31 15:42:48;;;;;;;5.50;2.70;;;;;;;17.60;92.49;98731.61;273068;1272;22183;-85
2023/08/31 15:48:50;;;;;;;4.00;2.20;;;;;;;17.42;93.59;98734.09;273103;1272;22351;-85
2023/08/31 15:54:54;;;;;;;6.80;2.40;;;;;;;17.27;93.77;98731.87;270471;1271;22551;-86
2023/08/31 16:01:01;;;;;;;4.30;2.10;;;;;;;17.18;95.08;98731.02;270582;1272;22569;-85
2023/08/31 16:07:04;;;;;;;3.50;2.20;;;;;;;17.14;96.32;98732.91;264329;1272;10002654;-84
2023/08/31 16:13:06;;;;;;;2.60;1.90;;;;;;;17.15;97.39;98738.98;272929;1271;23102;-87
2023/08/31 16:19:08;;;;;;;3.30;1.70;;;;;;;17.09;97.18;98737.48;271924;1271;23564;-85
2023/08/31 16:41:21;;;;;;;3.00;1.60;;;;;;;16.86;99.95;98752.31;272942;1271;22359;-85
2023/08/31 16:47:23;;;;;;;2.60;1.80;;;;;;;16.80;100.00;98749.73;272989;1270;22387;-85
2023/08/31 16:53:25;;;;;;;2.50;2.10;;;;;;;16.79;100.00;98747.23;271900;1270;22293;-86
2023/08/31 16:59:27;;;;;;;3.50;2.30;;;;;;;16.79;100.00;98747.38;273020;1271;23436;-85
2023/08/31 17:05:29;;;;;;;4.80;2.40;;;;;;;16.80;100.00;98746.66;271455;1271;23288;-85
2023/08/31 17:11:33;;;;;;;2.90;2.40;;;;;;;16.75;100.00;98746.98;271950;1272;22329;-85
2023/08/31 17:17:35;;;;;;;3.50;2.40;;;;;;;16.67;100.00;98746.95;273037;1268;22183;-85
2023/08/31 17:23:37;;;;;;;4.90;1.90;;;;;;;16.52;100.00;98753.61;273048;1270;23463;-86
2023/08/31 17:29:39;;;;;;;4.30;2.70;;;;;;;16.41;100.00;98757.63;272896;1270;22270;-86
2023/08/31 17:35:41;;;;;;;4.40;3.10;;;;;;;16.32;100.00;98755.56;273123;1272;22533;-85
2023/08/31 17:41:42;;;;;;;5.30;3.30;;;;;;;16.25;100.00;98763.79;273027;1271;22916;-86
2023/08/31 17:47:44;;;;;;;3.90;3.10;;;;;;;16.18;100.00;98771.64;272850;1271;23358;-85
2023/08/31 17:53:46;;;;;;;7.40;4.50;;;;;;;16.10;100.00;98784.39;272778;1271;22190;-85
2023/08/31 17:59:48;;;;;;;4.00;3.10;;;;;;;15.97;100.00;98783.93;272819;1272;22475;-85
2023/08/31 18:05:53;;;;;;;6.20;3.30;;;;;;;15.87;100.00;98779.42;270692;1271;24268;-85
2023/08/31 18:11:55;;;;;;;6.20;3.00;;;;;;;15.80;100.00;98785.12;270456;1271;25388;-84
2023/08/31 18:17:57;;;;;;;4.10;2.70;;;;;;;15.71;100.00;98790.27;270745;1271;22368;-85
2023/08/31 18:24:00;;;;;;;6.90;3.50;;;;;;;15.65;100.00;98795.63;271138;1271;23994;-84
2023/08/31 18:30:03;;;;;;;7.70;4.10;;;;;;;15.60;100.00;98807.36;272502;1271;22167;-85
2023/08/31 18:36:05;;;;;;;7.70;3.70;;;;;;;15.57;100.00;98814.11;272822;1271;22205;-85
2023/08/31 18:42:08;;;;;;;6.10;3.40;;;;;;;15.57;100.00;98817.71;272784;1271;23314;-84
2023/08/31 18:48:11;;;;;;;6.50;3.60;;;;;;;15.61;100.00;98818.21;272851;1271;22398;-85
2023/08/31 18:54:13;;;;;;;5.20;3.40;;;;;;;15.64;100.00;98817.16;272235;1271;22304;-84
2023/08/31 19:00:15;;;;;;;9.20;3.80;;;;;;;15.64;100.00;98821.41;272830;1271;22271;-85
2023/08/31 19:06:17;;;;;;;5.30;3.00;;;;;;;15.63;100.00;98830.66;272811;1271;23922;-85
2023/08/31 19:12:18;;;;;;;5.40;3.30;;;;;;;15.58;100.00;98834.41;272775;1272;22205;-84
2023/08/31 19:18:21;;;;;;;6.60;3.30;;;;;;;15.44;100.00;98843.80;272814;1271;23288;-84
2023/08/31 19:24:23;;;;;;;4.60;3.00;;;;;;;15.29;100.00;98852.67;272855;1271;22228;-84
2023/08/31 19:30:25;;;;;;;5.70;3.30;;;;;;;15.22;100.00;98861.33;272836;1272;22282;-86
2023/08/31 19:36:29;;;;;;;4.70;3.30;;;;;;;15.24;100.00;98865.02;272874;1271;22258;-84
2023/08/31 19:42:30;;;;;;;6.90;3.60;;;;;;;15.23;100.00;98871.40;272793;1271;22924;-85
2023/08/31 19:48:32;;;;;;;23.10;4.10;;;;;;;15.07;100.00;98869.66;272221;1272;24860;-85
2023/08/31 19:54:35;;;;;;;4.30;3.30;;;;;;;14.99;100.00;98872.65;271192;1272;22536;-84
2023/08/31 20:00:36;;;;;;;5.70;3.50;;;;;;;14.97;100.00;98871.95;272167;1272;22413;-86
2023/08/31 20:06:38;;;;;;;7.60;3.50;;;;;;;14.94;100.00;98872.22;272917;1272;23008;-85
2023/08/31 20:12:40;;;;;;;6.00;3.50;;;;;;;14.88;100.00;98882.73;272440;1271;22498;-84
2023/08/31 20:18:41;;;;;;;4.80;3.70;;;;;;;14.83;100.00;98884.59;273061;1272;22976;-85
2023/08/31 20:24:43;;;;;;;4.40;2.70;;;;;;;14.77;100.00;98887.23;271847;1272;22435;-84
2023/08/31 20:30:45;;;;;;;6.80;3.80;;;;;;;14.71;100.00;98885.94;269992;1272;25490;-85
2023/08/31 20:36:49;;;;;;;8.20;3.60;;;;;;;14.65;100.00;98884.02;270028;1272;22595;-84
2023/08/31 20:42:53;;;;;;;4.30;3.60;;;;;;;14.51;100.00;98888.59;270187;1271;22549;-85
2023/08/31 20:48:56;;;;;;;6.60;3.20;;;;;;;14.42;100.00;98895.27;271620;1272;22322;-84
2023/08/31 20:55:02;;;;;;;6.90;3.60;;;;;;;14.45;100.00;98898.86;272906;1272;22351;-85
2023/08/31 21:01:08;;;;;;;6.50;3.30;;;;;;;14.44;100.00;98898.95;271109;1271;22222;-84
2023/08/31 21:07:10;;;;;;;4.70;3.10;;;;;;;14.44;100.00;98901.93;269875;1272;24244;-85
2023/08/31 21:13:11;;;;;;;6.40;3.80;;;;;;;14.40;100.00;98904.16;269425;1272;22526;-84
2023/08/31 21:19:13;;;;;;;5.90;3.40;;;;;;;14.29;100.00;98910.03;270362;1272;22581;-84
2023/08/31 21:25:15;;;;;;;5.60;3.60;;;;;;;14.14;100.00;98909.38;270938;1272;22951;-84
2023/08/31 21:31:17;;;;;;;5.50;3.50;;;;;;;13.99;100.00;98919.27;271526;1272;22319;-84
2023/08/31 21:37:19;;;;;;;5.50;4.10;;;;;;;13.94;100.00;98929.59;270104;1272;23669;-85
2023/08/31 21:43:20;;;;;;;5.70;3.40;;;;;;;13.85;100.00;98934.80;270032;1271;24378;-85
2023/08/31 21:49:22;;;;;;;5.40;4.10;;;;;;;13.79;100.00;98939.38;270309;1271;22684;-85
2023/08/31 21:55:24;;;;;;;5.60;3.20;;;;;;;13.71;100.00;98949.22;270820;1272;22545;-84
2023/08/31 22:01:26;;;;;;;4.50;3.40;;;;;;;13.62;100.00;98954.75;270874;1272;22322;-85
2023/08/31 22:07:27;;;;;;;6.80;3.60;;;;;;;13.46;100.00;98959.88;272418;1272;22550;-85
2023/08/31 22:13:30;;;;;;;4.20;3.50;;;;;;;13.35;100.00;98963.50;270203;1272;22315;-85
2023/08/31 22:19:32;;;;;;;8.60;3.80;;;;;;;13.30;100.00;98968.67;270207;1272;24400;-84
2023/08/31 22:25:34;;;;;;;6.30;3.70;;;;;;;13.27;100.00;98973.15;272110;1272;22216;-85
2023/08/31 22:31:35;;;;;;;7.00;3.50;;;;;;;13.18;100.00;98976.84;272132;1272;22571;-85
2023/08/31 22:37:37;;;;;;;5.70;3.50;;;;;;;13.06;100.00;98977.86;270369;1271;22544;-84
2023/08/31 22:43:42;;;;;;;4.70;3.60;;;;;;;12.99;100.00;98972.11;270051;1260;23903;-84
2023/08/31 22:49:44;;;;;;;10.50;3.50;;;;;;;12.91;100.00;98972.70;269699;1271;22282;-84
2023/08/31 22:55:46;;;;;;;11.00;3.80;;;;;;;12.82;100.00;98975.30;271566;1271;23318;-84
2023/08/31 23:01:47;;;;;;;6.10;3.30;;;;;;;12.75;100.00;98973.31;272865;1271;22420;-85
2023/08/31 23:07:49;;;;;;;6.90;3.30;;;;;;;12.71;100.00;98978.88;272805;1272;23939;-85
2023/08/31 23:25:17;;;;;;;6.50;4.10;;;;;;;12.85;100.00;98994.99;264794;1295;549237;-84
2023/08/31 23:31:19;;;;;;;4.30;3.60;;;;;;;12.81;100.00;98995.06;268393;1278;24399;-84
2023/08/31 23:37:20;;;;;;;5.00;3.70;;;;;;;12.70;100.00;98996.61;269222;1276;22516;-84
2023/08/31 23:43:20;;;;;;;6.70;4.20;;;;;;;12.62;100.00;98996.35;269993;1278;22429;-84
2023/08/31 23:49:23;;;;;;;5.50;3.80;;;;;;;12.54;100.00;98997.34;271492;1278;22441;-84
2023/08/31 23:55:24;;;;;;;7.20;4.00;;;;;;;12.45;100.00;99007.36;270914;1278;22519;-83
